»·PEaware :: C17201 L52-L88

C17201 :: L52-L88

FLIGHT INFORMATION

Flight Status: Arrived
Operator: Privately registered:
Canada
More flights under this callsign
Pilot: Navarro J. (20298)
Aircraft: Unknown
(CXA1)
More flights by this aircraft type
Origin: L52 Oceano Co
United States
Destination: L88 New Cuyama
United States
More flights between these airports :: More routes between these airports
Route: L52 FLW L88
File this flight plan on PilotEdge
Remarks: FIRST PLAN IS WRONG. INCORRECT ROUTES
Altitude:
(Current/Filed)
7,500ft
Speed:
(Current/Filed)
110kts
Departed: 25-Sep-18 05:05 PM
Arrived: 25-Sep-18 05:51 PM
Distance/Time
Traveled:
47nm/0:46
Distance/Time
To Go:
Arrived

Flight Plot

Page will automatically refresh every two minutes.


Map Options




Map Legend


Flown Route
Filed Route
Departure Airport
Arrival Airport
Navaid (VOR, NDB)
Fix

Horizontal Profiles

Position Reports

Time Latitude Longitude Heading Altitude Ground
Speed
25-Sep-18 16:59 35.101781 -120.624488 345 14ft 0kts
25-Sep-18 17:00 35.101781 -120.624488 345 14ft 0kts
25-Sep-18 17:01 35.101781 -120.624488 345 14ft 0kts
25-Sep-18 17:02 35.101781 -120.624488 345 14ft 0kts
25-Sep-18 17:03 35.101781 -120.624488 345 14ft 0kts
25-Sep-18 17:04 35.101781 -120.624488 345 14ft 0kts
25-Sep-18 17:05 35.101981 -120.624044 123 14ft 9kts
25-Sep-18 17:06 35.099582 -120.619521 105 17ft 0kts
25-Sep-18 17:07 35.101649 -120.622447 303 20ft 65kts
25-Sep-18 17:08 35.112214 -120.639026 298 827ft 64kts
25-Sep-18 17:09 35.125418 -120.636906 96 1569ft 86kts
25-Sep-18 17:10 35.122762 -120.607224 87 2432ft 89kts
25-Sep-18 17:11 35.121842 -120.577117 94 3282ft 90kts
25-Sep-18 17:12 35.118644 -120.547357 99 4120ft 90kts
25-Sep-18 17:13 35.110207 -120.518508 111 4884ft 95kts
25-Sep-18 17:14 35.101877 -120.487669 102 5600ft 96kts
25-Sep-18 17:15 35.099360 -120.455116 79 6173ft 97kts
25-Sep-18 17:16 35.101427 -120.422205 89 6711ft 98kts
25-Sep-18 17:17 35.103662 -120.388963 77 7199ft 102kts
25-Sep-18 17:18 35.110792 -120.355029 69 7424ft 110kts
25-Sep-18 17:19 35.118720 -120.319249 74 7443ft 113kts
25-Sep-18 17:20 35.125350 -120.283577 77 7439ft 111kts
25-Sep-18 17:21 35.127988 -120.246876 85 7500ft 108kts
25-Sep-18 17:22 35.130097 -120.209260 86 7416ft 112kts
25-Sep-18 17:23 35.129676 -120.172204 92 7500ft 105kts
25-Sep-18 17:24 35.129986 -120.135667 85 7475ft 112kts
25-Sep-18 17:25 35.133684 -120.097359 82 7366ft 113kts
25-Sep-18 17:26 35.136930 -120.059252 79 7286ft 113kts
25-Sep-18 17:27 35.144019 -120.022882 73 7346ft 104kts
25-Sep-18 17:28 35.149905 -119.988868 85 7465ft 107kts
25-Sep-18 17:29 35.152075 -119.952251 86 7470ft 109kts
25-Sep-18 17:30 35.154665 -119.915245 87 7502ft 107kts
25-Sep-18 17:31 35.154534 -119.877627 90 7340ft 111kts
25-Sep-18 17:32 35.156857 -119.841490 84 7230ft 105kts
25-Sep-18 17:33 35.145348 -119.813457 171 7044ft 103kts
25-Sep-18 17:34 35.119190 -119.827476 211 6799ft 109kts
25-Sep-18 17:35 35.098605 -119.853104 239 6552ft 107kts
25-Sep-18 17:36 35.075005 -119.868471 167 6319ft 104kts
25-Sep-18 17:37 35.046469 -119.860525 163 6238ft 106kts
25-Sep-18 17:38 35.019613 -119.847063 152 6243ft 104kts
25-Sep-18 17:39 34.991953 -119.836597 165 6276ft 101kts
25-Sep-18 17:40 34.968115 -119.820715 143 6267ft 97kts
25-Sep-18 17:41 34.947043 -119.799654 133 6041ft 97kts
25-Sep-18 17:42 34.928792 -119.776588 132 5782ft 96kts
25-Sep-18 17:43 34.911583 -119.752634 125 5642ft 97kts
25-Sep-18 17:44 34.891780 -119.728735 146 5322ft 102kts
25-Sep-18 17:45 34.876818 -119.702118 130 5059ft 101kts
25-Sep-18 17:46 34.867291 -119.675459 89 4860ft 84kts
25-Sep-18 17:47 34.871030 -119.650155 23 4622ft 84kts
25-Sep-18 17:48 34.891990 -119.633921 32 4243ft 90kts
25-Sep-18 17:49 34.913881 -119.622975 6 3945ft 82kts
25-Sep-18 17:50 34.924862 -119.639727 278 3482ft 76kts
25-Sep-18 17:51 34.930971 -119.662497 289 2766ft 68kts
25-Sep-18 17:52 34.938444 -119.681847 296 2192ft 48kts
25-Sep-18 17:53 34.940140 -119.685986 295 2175ft 15kts
25-Sep-18 17:54 34.942236 -119.690678 343 2157ft 0kts
25-Sep-18 17:55 34.942759 -119.690597 128 2156ft 0kts
25-Sep-18 17:56 34.942759 -119.690597 128 2156ft 0kts
25-Sep-18 17:57 34.942759 -119.690597 128 2156ft 0kts
25-Sep-18 17:58 34.942759 -119.690597 128 2156ft 0kts

Navigation Log

Ident Type
Flight plan parsing failed, navigation log unavailable